sensor_id;sensor_type;location;lat;lon;timestamp;pressure;altitude;pressure_sealevel;temperature;humidity
65832;BME280;52593;42.648;23.332;2023-04-27T00:01:11;94231.72;;;6.41;57.56
65832;BME280;52593;42.648;23.332;2023-04-27T00:03:38;94246.38;;;6.46;57.55
65832;BME280;52593;42.648;23.332;2023-04-27T00:06:03;94236.88;;;6.43;57.35
65832;BME280;52593;42.648;23.332;2023-04-27T00:08:29;94238.41;;;6.37;57.73
65832;BME280;52593;42.648;23.332;2023-04-27T00:10:55;94231.06;;;6.23;57.42
65832;BME280;52593;42.648;23.332;2023-04-27T00:13:21;94248.66;;;6.32;57.93
65832;BME280;52593;42.648;23.332;2023-04-27T00:15:46;94231.38;;;6.20;57.85
65832;BME280;52593;42.648;23.332;2023-04-27T00:18:12;94250.69;;;6.22;58.05
65832;BME280;52593;42.648;23.332;2023-04-27T00:20:37;94227.22;;;6.09;57.71
65832;BME280;52593;42.648;23.332;2023-04-27T00:23:02;94255.47;;;6.18;57.73
65832;BME280;52593;42.648;23.332;2023-04-27T00:25:28;94259.31;;;6.16;58.02
65832;BME280;52593;42.648;23.332;2023-04-27T00:27:53;94261.47;;;6.20;57.61
65832;BME280;52593;42.648;23.332;2023-04-27T00:30:19;94245.00;;;6.17;58.34
65832;BME280;52593;42.648;23.332;2023-04-27T00:32:44;94257.13;;;6.19;57.96
65832;BME280;52593;42.648;23.332;2023-04-27T00:35:10;94223.75;;;6.09;57.89
65832;BME280;52593;42.648;23.332;2023-04-27T00:37:35;94240.16;;;5.96;57.97
65832;BME280;52593;42.648;23.332;2023-04-27T00:40:03;94244.59;;;5.87;58.09
65832;BME280;52593;42.648;23.332;2023-04-27T00:42:28;94248.44;;;5.93;57.71
65832;BME280;52593;42.648;23.332;2023-04-27T00:44:56;94247.53;;;5.76;58.50
65832;BME280;52593;42.648;23.332;2023-04-27T00:47:22;94246.22;;;5.71;58.79
65832;BME280;52593;42.648;23.332;2023-04-27T00:49:48;94248.03;;;5.71;59.54
65832;BME280;52593;42.648;23.332;2023-04-27T00:52:13;94230.88;;;5.57;59.11
65832;BME280;52593;42.648;23.332;2023-04-27T00:54:39;94241.19;;;5.60;58.89
65832;BME280;52593;42.648;23.332;2023-04-27T00:57:04;94251.47;;;5.63;58.92
65832;BME280;52593;42.648;23.332;2023-04-27T00:59:30;94255.16;;;5.62;59.18
65832;BME280;52593;42.648;23.332;2023-04-27T01:01:56;94258.13;;;5.59;59.12
65832;BME280;52593;42.648;23.332;2023-04-27T01:04:22;94260.56;;;5.52;60.15
65832;BME280;52593;42.648;23.332;2023-04-27T01:06:47;94247.09;;;5.38;60.38
65832;BME280;52593;42.648;23.332;2023-04-27T01:09:13;94261.69;;;5.42;60.31
65832;BME280;52593;42.648;23.332;2023-04-27T01:11:40;94262.44;;;5.26;60.65
65832;BME280;52593;42.648;23.332;2023-04-27T01:14:06;94274.91;;;5.33;60.29
65832;BME280;52593;42.648;23.332;2023-04-27T01:16:32;94273.25;;;5.32;60.15
65832;BME280;52593;42.648;23.332;2023-04-27T01:18:58;94277.22;;;5.28;60.57
65832;BME280;52593;42.648;23.332;2023-04-27T01:21:24;94265.75;;;5.28;60.62
65832;BME280;52593;42.648;23.332;2023-04-27T01:23:50;94268.38;;;5.20;60.33
65832;BME280;52593;42.648;23.332;2023-04-27T01:26:15;94266.56;;;5.20;59.92
65832;BME280;52593;42.648;23.332;2023-04-27T01:28:42;94271.03;;;5.20;59.95
65832;BME280;52593;42.648;23.332;2023-04-27T01:31:08;94279.81;;;5.20;60.47
65832;BME280;52593;42.648;23.332;2023-04-27T01:33:34;94279.78;;;5.12;60.13
65832;BME280;52593;42.648;23.332;2023-04-27T01:35:59;94266.53;;;5.12;60.02
65832;BME280;52593;42.648;23.332;2023-04-27T01:38:25;94273.78;;;5.10;60.07
65832;BME280;52593;42.648;23.332;2023-04-27T01:40:50;94270.78;;;5.05;60.05
65832;BME280;52593;42.648;23.332;2023-04-27T01:43:15;94267.63;;;5.01;60.66
65832;BME280;52593;42.648;23.332;2023-04-27T01:45:41;94291.16;;;5.04;60.56
65832;BME280;52593;42.648;23.332;2023-04-27T01:48:06;94285.88;;;5.04;60.38
65832;BME280;52593;42.648;23.332;2023-04-27T01:50:31;94285.16;;;5.02;60.31
65832;BME280;52593;42.648;23.332;2023-04-27T01:52:57;94267.22;;;4.96;60.00
65832;BME280;52593;42.648;23.332;2023-04-27T01:55:22;94280.25;;;5.07;59.62
65832;BME280;52593;42.648;23.332;2023-04-27T01:57:47;94274.09;;;5.07;60.12
65832;BME280;52593;42.648;23.332;2023-04-27T02:00:13;94285.09;;;5.12;59.78
65832;BME280;52593;42.648;23.332;2023-04-27T02:02:39;94271.75;;;5.04;59.97
65832;BME280;52593;42.648;23.332;2023-04-27T02:05:06;94290.00;;;5.07;60.61
65832;BME280;52593;42.648;23.332;2023-04-27T02:07:31;94272.53;;;4.96;60.32
65832;BME280;52593;42.648;23.332;2023-04-27T02:09:57;94268.41;;;4.93;60.11
65832;BME280;52593;42.648;23.332;2023-04-27T02:12:22;94276.81;;;4.89;60.53
65832;BME280;52593;42.648;23.332;2023-04-27T02:14:47;94276.19;;;4.95;60.05
65832;BME280;52593;42.648;23.332;2023-04-27T02:17:13;94278.00;;;4.94;59.83
65832;BME280;52593;42.648;23.332;2023-04-27T02:19:38;94276.66;;;4.90;59.98
65832;BME280;52593;42.648;23.332;2023-04-27T02:22:03;94286.50;;;4.98;59.68
65832;BME280;52593;42.648;23.332;2023-04-27T02:24:29;94288.25;;;4.89;60.41
65832;BME280;52593;42.648;23.332;2023-04-27T02:26:54;94287.50;;;5.05;59.80
65832;BME280;52593;42.648;23.332;2023-04-27T02:29:19;94279.72;;;5.04;59.14
65832;BME280;52593;42.648;23.332;2023-04-27T02:31:45;94289.84;;;5.08;59.14
65832;BME280;52593;42.648;23.332;2023-04-27T02:34:11;94278.88;;;5.03;58.92
65832;BME280;52593;42.648;23.332;2023-04-27T02:36:36;94297.97;;;5.07;59.30
65832;BME280;52593;42.648;23.332;2023-04-27T02:39:01;94282.00;;;4.98;59.74
65832;BME280;52593;42.648;23.332;2023-04-27T02:41:30;94292.34;;;5.10;59.15
65832;BME280;52593;42.648;23.332;2023-04-27T02:43:56;94273.91;;;5.00;59.70
65832;BME280;52593;42.648;23.332;2023-04-27T02:46:39;94293.97;;;5.03;58.84
65832;BME280;52593;42.648;23.332;2023-04-27T02:49:05;94294.13;;;5.01;58.82
65832;BME280;52593;42.648;23.332;2023-04-27T02:51:30;94290.63;;;5.00;59.16
65832;BME280;52593;42.648;23.332;2023-04-27T02:53:55;94292.66;;;5.07;59.44
65832;BME280;52593;42.648;23.332;2023-04-27T02:56:21;94290.38;;;5.12;58.98
65832;BME280;52593;42.648;23.332;2023-04-27T02:58:46;94297.03;;;5.16;58.17
65832;BME280;52593;42.648;23.332;2023-04-27T03:01:16;94291.00;;;5.06;58.47
65832;BME280;52593;42.648;23.332;2023-04-27T03:03:46;94298.13;;;5.05;58.77
65832;BME280;52593;42.648;23.332;2023-04-27T03:06:12;94291.63;;;4.99;58.79
65832;BME280;52593;42.648;23.332;2023-04-27T03:08:38;94287.63;;;4.95;58.54
65832;BME280;52593;42.648;23.332;2023-04-27T03:11:03;94290.78;;;4.99;58.21
65832;BME280;52593;42.648;23.332;2023-04-27T03:13:29;94311.22;;;5.07;58.53
65832;BME280;52593;42.648;23.332;2023-04-27T03:15:54;94293.28;;;5.00;58.33
65832;BME280;52593;42.648;23.332;2023-04-27T03:18:19;94312.91;;;5.08;58.16
65832;BME280;52593;42.648;23.332;2023-04-27T03:20:45;94312.84;;;4.99;58.52
65832;BME280;52593;42.648;23.332;2023-04-27T03:23:10;94307.53;;;4.99;58.10
65832;BME280;52593;42.648;23.332;2023-04-27T03:25:36;94321.31;;;5.03;58.11
65832;BME280;52593;42.648;23.332;2023-04-27T03:28:01;94317.38;;;5.07;58.39
65832;BME280;52593;42.648;23.332;2023-04-27T03:30:27;94330.25;;;5.02;58.11
65832;BME280;52593;42.648;23.332;2023-04-27T03:32:52;94327.09;;;4.98;58.41
65832;BME280;52593;42.648;23.332;2023-04-27T03:35:18;94324.75;;;4.95;58.12
65832;BME280;52593;42.648;23.332;2023-04-27T03:37:44;94317.25;;;4.91;58.36
65832;BME280;52593;42.648;23.332;2023-04-27T03:40:10;94340.66;;;4.95;58.83
65832;BME280;52593;42.648;23.332;2023-04-27T03:42:36;94338.66;;;4.97;58.61
65832;BME280;52593;42.648;23.332;2023-04-27T03:45:02;94332.19;;;4.92;58.28
65832;BME280;52593;42.648;23.332;2023-04-27T03:47:28;94338.94;;;4.86;58.81
65832;BME280;52593;42.648;23.332;2023-04-27T03:49:53;94335.00;;;4.90;58.07
65832;BME280;52593;42.648;23.332;2023-04-27T03:52:18;94351.25;;;4.95;57.98
65832;BME280;52593;42.648;23.332;2023-04-27T03:54:44;94335.34;;;4.95;57.99
65832;BME280;52593;42.648;23.332;2023-04-27T03:57:09;94340.34;;;4.98;58.01
65832;BME280;52593;42.648;23.332;2023-04-27T03:59:35;94341.72;;;5.03;58.34
65832;BME280;52593;42.648;23.332;2023-04-27T04:02:00;94362.78;;;5.04;57.77
65832;BME280;52593;42.648;23.332;2023-04-27T04:04:27;94368.00;;;4.96;57.27
65832;BME280;52593;42.648;23.332;2023-04-27T04:06:53;94356.72;;;4.94;57.31
65832;BME280;52593;42.648;23.332;2023-04-27T04:09:18;94358.41;;;4.95;57.40
65832;BME280;52593;42.648;23.332;2023-04-27T04:11:44;94370.88;;;5.03;57.39
65832;BME280;52593;42.648;23.332;2023-04-27T04:14:09;94372.47;;;4.95;57.07
65832;BME280;52593;42.648;23.332;2023-04-27T04:16:35;94365.13;;;4.89;57.02
65832;BME280;52593;42.648;23.332;2023-04-27T04:19:00;94368.00;;;4.96;56.48
65832;BME280;52593;42.648;23.332;2023-04-27T04:21:26;94381.66;;;5.01;56.67
65832;BME280;52593;42.648;23.332;2023-04-27T04:23:51;94370.50;;;4.97;56.44
65832;BME280;52593;42.648;23.332;2023-04-27T04:26:17;94366.34;;;4.95;56.97
65832;BME280;52593;42.648;23.332;2023-04-27T04:28:42;94364.97;;;4.91;56.93
65832;BME280;52593;42.648;23.332;2023-04-27T04:31:08;94381.09;;;4.97;56.77
65832;BME280;52593;42.648;23.332;2023-04-27T04:33:34;94392.09;;;5.03;56.94
65832;BME280;52593;42.648;23.332;2023-04-27T04:36:02;94388.97;;;5.07;56.83
65832;BME280;52593;42.648;23.332;2023-04-27T04:38:28;94382.31;;;5.03;57.21
65832;BME280;52593;42.648;23.332;2023-04-27T04:40:53;94383.53;;;5.09;56.90
65832;BME280;52593;42.648;23.332;2023-04-27T04:43:18;94373.00;;;4.99;56.15
65832;BME280;52593;42.648;23.332;2023-04-27T04:45:44;94391.84;;;5.14;56.70
65832;BME280;52593;42.648;23.332;2023-04-27T04:48:10;94404.28;;;5.13;57.00
65832;BME280;52593;42.648;23.332;2023-04-27T04:50:35;94386.53;;;5.14;55.92
65832;BME280;52593;42.648;23.332;2023-04-27T04:53:01;94400.84;;;5.21;55.63
65832;BME280;52593;42.648;23.332;2023-04-27T04:55:26;94419.00;;;5.34;55.89
65832;BME280;52593;42.648;23.332;2023-04-27T04:57:52;94411.28;;;5.41;55.56
65832;BME280;52593;42.648;23.332;2023-04-27T05:00:17;94419.09;;;5.42;55.48
65832;BME280;52593;42.648;23.332;2023-04-27T05:02:43;94413.03;;;5.32;55.35
65832;BME280;52593;42.648;23.332;2023-04-27T05:05:08;94407.88;;;5.30;55.50
65832;BME280;52593;42.648;23.332;2023-04-27T05:07:34;94420.56;;;5.45;55.65
65832;BME280;52593;42.648;23.332;2023-04-27T05:09:59;94430.38;;;5.70;55.15
65832;BME280;52593;42.648;23.332;2023-04-27T05:12:25;94425.38;;;5.67;54.43
65832;BME280;52593;42.648;23.332;2023-04-27T05:14:51;94423.50;;;5.60;54.64
65832;BME280;52593;42.648;23.332;2023-04-27T05:17:17;94428.97;;;5.58;54.94
65832;BME280;52593;42.648;23.332;2023-04-27T05:19:42;94444.31;;;5.72;54.93
65832;BME280;52593;42.648;23.332;2023-04-27T05:22:08;94429.41;;;5.71;54.62
65832;BME280;52593;42.648;23.332;2023-04-27T05:24:33;94438.81;;;5.66;55.36
65832;BME280;52593;42.648;23.332;2023-04-27T05:26:58;94440.31;;;5.68;55.34
65832;BME280;52593;42.648;23.332;2023-04-27T05:29:24;94443.13;;;5.67;54.81
65832;BME280;52593;42.648;23.332;2023-04-27T05:31:49;94445.81;;;5.49;55.63
65832;BME280;52593;42.648;23.332;2023-04-27T05:34:15;94434.31;;;5.40;56.07
65832;BME280;52593;42.648;23.332;2023-04-27T05:36:41;94430.84;;;5.40;56.58
65832;BME280;52593;42.648;23.332;2023-04-27T05:39:06;94456.91;;;5.44;56.64
65832;BME280;52593;42.648;23.332;2023-04-27T05:41:32;94451.59;;;5.44;55.94
65832;BME280;52593;42.648;23.332;2023-04-27T05:43:57;94434.91;;;5.52;57.12
65832;BME280;52593;42.648;23.332;2023-04-27T05:46:22;94454.06;;;5.64;55.68
65832;BME280;52593;42.648;23.332;2023-04-27T05:48:48;94455.94;;;5.71;57.83
65832;BME280;52593;42.648;23.332;2023-04-27T05:51:13;94456.81;;;5.80;56.87
65832;BME280;52593;42.648;23.332;2023-04-27T05:53:38;94448.50;;;5.75;57.19
65832;BME280;52593;42.648;23.332;2023-04-27T05:56:04;94448.34;;;5.77;56.85
65832;BME280;52593;42.648;23.332;2023-04-27T05:58:31;94450.84;;;5.78;56.82
65832;BME280;52593;42.648;23.332;2023-04-27T06:00:57;94465.97;;;5.86;56.97
65832;BME280;52593;42.648;23.332;2023-04-27T06:03:23;94441.47;;;5.66;56.67
65832;BME280;52593;42.648;23.332;2023-04-27T06:05:57;94450.03;;;5.86;56.59
65832;BME280;52593;42.648;23.332;2023-04-27T06:08:23;94462.13;;;5.80;56.36
65832;BME280;52593;42.648;23.332;2023-04-27T06:10:51;94439.06;;;5.81;56.63
65832;BME280;52593;42.648;23.332;2023-04-27T06:13:17;94444.53;;;5.79;56.87
65832;BME280;52593;42.648;23.332;2023-04-27T06:15:43;94462.78;;;6.43;64.46
65832;BME280;52593;42.648;23.332;2023-04-27T06:18:08;94462.31;;;6.48;55.14
65832;BME280;52593;42.648;23.332;2023-04-27T06:20:34;94443.28;;;6.18;56.85
65832;BME280;52593;42.648;23.332;2023-04-27T06:23:00;94452.84;;;6.11;56.18
65832;BME280;52593;42.648;23.332;2023-04-27T06:25:26;94446.81;;;6.27;56.35
65832;BME280;52593;42.648;23.332;2023-04-27T06:27:53;94438.63;;;6.20;56.14
65832;BME280;52593;42.648;23.332;2023-04-27T06:30:19;94443.34;;;6.34;55.72
65832;BME280;52593;42.648;23.332;2023-04-27T06:32:44;94437.41;;;6.40;56.04
65832;BME280;52593;42.648;23.332;2023-04-27T06:35:10;94446.03;;;6.42;54.58
65832;BME280;52593;42.648;23.332;2023-04-27T06:37:35;94441.22;;;6.46;55.28
65832;BME280;52593;42.648;23.332;2023-04-27T06:40:01;94442.75;;;6.57;56.16
65832;BME280;52593;42.648;23.332;2023-04-27T06:42:27;94445.16;;;6.85;55.63
65832;BME280;52593;42.648;23.332;2023-04-27T06:44:53;94456.78;;;6.75;54.35
65832;BME280;52593;42.648;23.332;2023-04-27T06:47:20;94435.94;;;6.63;54.83
65832;BME280;52593;42.648;23.332;2023-04-27T06:49:45;94427.75;;;6.48;53.57
65832;BME280;52593;42.648;23.332;2023-04-27T06:52:10;94431.13;;;6.58;54.50
65832;BME280;52593;42.648;23.332;2023-04-27T06:54:36;94443.66;;;6.74;54.34
65832;BME280;52593;42.648;23.332;2023-04-27T06:57:01;94439.47;;;6.79;54.25
65832;BME280;52593;42.648;23.332;2023-04-27T06:59:27;94438.19;;;7.00;53.51
65832;BME280;52593;42.648;23.332;2023-04-27T07:01:52;94428.38;;;7.01;53.15
65832;BME280;52593;42.648;23.332;2023-04-27T07:04:18;94425.22;;;7.05;52.99
65832;BME280;52593;42.648;23.332;2023-04-27T07:06:43;94425.88;;;7.07;52.40
65832;BME280;52593;42.648;23.332;2023-04-27T07:09:09;94427.38;;;7.18;52.76
65832;BME280;52593;42.648;23.332;2023-04-27T07:11:34;94440.69;;;7.02;52.93
65832;BME280;52593;42.648;23.332;2023-04-27T07:13:59;94415.41;;;7.06;52.81
65832;BME280;52593;42.648;23.332;2023-04-27T07:16:25;94418.75;;;7.32;52.39
65832;BME280;52593;42.648;23.332;2023-04-27T07:18:50;94440.22;;;7.31;51.51
65832;BME280;52593;42.648;23.332;2023-04-27T07:21:16;94423.94;;;7.26;51.53
65832;BME280;52593;42.648;23.332;2023-04-27T07:23:41;94422.41;;;7.31;52.00
65832;BME280;52593;42.648;23.332;2023-04-27T07:26:07;94423.59;;;7.37;52.02
65832;BME280;52593;42.648;23.332;2023-04-27T07:28:33;94420.75;;;7.30;51.48
65832;BME280;52593;42.648;23.332;2023-04-27T07:31:04;94423.91;;;7.34;51.28
65832;BME280;52593;42.648;23.332;2023-04-27T07:33:29;94425.41;;;7.61;50.78
65832;BME280;52593;42.648;23.332;2023-04-27T07:35:55;94424.88;;;7.58;51.09
65832;BME280;52593;42.648;23.332;2023-04-27T07:38:20;94420.53;;;7.73;50.48
65832;BME280;52593;42.648;23.332;2023-04-27T07:40:46;94425.88;;;7.81;51.10
65832;BME280;52593;42.648;23.332;2023-04-27T07:43:12;94419.38;;;7.59;50.53
65832;BME280;52593;42.648;23.332;2023-04-27T07:45:37;94426.72;;;7.74;51.04
65832;BME280;52593;42.648;23.332;2023-04-27T07:48:05;94420.38;;;7.83;50.79
65832;BME280;52593;42.648;23.332;2023-04-27T07:50:31;94423.69;;;7.85;49.37
65832;BME280;52593;42.648;23.332;2023-04-27T07:52:57;94429.03;;;7.68;49.84
65832;BME280;52593;42.648;23.332;2023-04-27T07:55:23;94418.53;;;7.92;51.31
65832;BME280;52593;42.648;23.332;2023-04-27T07:57:52;94416.50;;;7.85;49.66
65832;BME280;52593;42.648;23.332;2023-04-27T08:00:18;94421.97;;;8.09;49.00
65832;BME280;52593;42.648;23.332;2023-04-27T08:02:44;94420.84;;;7.95;49.06
65832;BME280;52593;42.648;23.332;2023-04-27T08:05:10;94420.69;;;7.96;49.28
65832;BME280;52593;42.648;23.332;2023-04-27T08:07:35;94417.25;;;8.27;49.57
65832;BME280;52593;42.648;23.332;2023-04-27T08:10:00;94416.38;;;8.35;48.80
65832;BME280;52593;42.648;23.332;2023-04-27T08:12:26;94428.38;;;8.31;47.42
65832;BME280;52593;42.648;23.332;2023-04-27T08:14:51;94429.19;;;8.31;47.71
65832;BME280;52593;42.648;23.332;2023-04-27T08:17:18;94421.00;;;8.41;47.90
65832;BME280;52593;42.648;23.332;2023-04-27T08:19:43;94428.00;;;8.42;46.87
65832;BME280;52593;42.648;23.332;2023-04-27T08:22:08;94407.53;;;8.34;48.16
65832;BME280;52593;42.648;23.332;2023-04-27T08:24:34;94412.69;;;8.36;46.42
65832;BME280;52593;42.648;23.332;2023-04-27T08:27:00;94424.47;;;8.58;47.04
65832;BME280;52593;42.648;23.332;2023-04-27T08:29:27;94409.47;;;8.57;46.73
65832;BME280;52593;42.648;23.332;2023-04-27T08:31:53;94419.25;;;8.65;47.97
65832;BME280;52593;42.648;23.332;2023-04-27T08:34:18;94404.41;;;8.70;48.02
65832;BME280;52593;42.648;23.332;2023-04-27T08:36:44;94416.63;;;8.88;46.57
65832;BME280;52593;42.648;23.332;2023-04-27T08:39:09;94408.44;;;8.89;46.75
65832;BME280;52593;42.648;23.332;2023-04-27T08:41:35;94427.19;;;9.04;46.77
65832;BME280;52593;42.648;23.332;2023-04-27T08:44:00;94410.47;;;8.87;47.01
65832;BME280;52593;42.648;23.332;2023-04-27T08:46:26;94424.69;;;9.03;47.86
65832;BME280;52593;42.648;23.332;2023-04-27T08:48:52;94421.38;;;8.78;47.74
65832;BME280;52593;42.648;23.332;2023-04-27T08:51:18;94431.47;;;9.14;46.74
65832;BME280;52593;42.648;23.332;2023-04-27T08:53:49;94423.28;;;9.15;45.43
65832;BME280;52593;42.648;23.332;2023-04-27T08:56:16;94427.38;;;9.03;45.58
65832;BME280;52593;42.648;23.332;2023-04-27T08:58:42;94424.00;;;9.09;46.22
65832;BME280;52593;42.648;23.332;2023-04-27T09:01:07;94425.94;;;9.15;45.53
65832;BME280;52593;42.648;23.332;2023-04-27T09:03:34;94415.44;;;9.37;45.48
65832;BME280;52593;42.648;23.332;2023-04-27T09:06:00;94423.03;;;9.48;45.04
65832;BME280;52593;42.648;23.332;2023-04-27T09:08:26;94404.34;;;9.02;45.56
65832;BME280;52593;42.648;23.332;2023-04-27T09:10:52;94408.66;;;9.49;45.05
65832;BME280;52593;42.648;23.332;2023-04-27T09:13:19;94409.34;;;9.66;45.63
65832;BME280;52593;42.648;23.332;2023-04-27T09:15:49;94398.53;;;9.97;43.94
65832;BME280;52593;42.648;23.332;2023-04-27T09:18:19;94409.81;;;9.85;43.48
65832;BME280;52593;42.648;23.332;2023-04-27T09:20:47;94405.34;;;10.00;43.45
65832;BME280;52593;42.648;23.332;2023-04-27T09:23:34;94402.75;;;10.07;43.34
65832;BME280;52593;42.648;23.332;2023-04-27T09:26:01;94403.53;;;9.62;44.01
65832;BME280;52593;42.648;23.332;2023-04-27T09:28:28;94409.59;;;9.56;43.69
65832;BME280;52593;42.648;23.332;2023-04-27T09:30:59;94392.72;;;9.79;43.55
65832;BME280;52593;42.648;23.332;2023-04-27T09:33:29;94394.47;;;10.16;42.58
65832;BME280;52593;42.648;23.332;2023-04-27T09:35:57;94380.81;;;10.41;41.88
65832;BME280;52593;42.648;23.332;2023-04-27T09:38:22;94378.53;;;10.38;42.14
65832;BME280;52593;42.648;23.332;2023-04-27T09:40:52;94363.75;;;10.57;42.24
65832;BME280;52593;42.648;23.332;2023-04-27T09:43:18;94388.75;;;10.64;42.14
65832;BME280;52593;42.648;23.332;2023-04-27T09:45:43;94361.44;;;10.24;40.92
65832;BME280;52593;42.648;23.332;2023-04-27T09:48:10;94385.25;;;10.19;41.91
65832;BME280;52593;42.648;23.332;2023-04-27T09:50:40;94370.69;;;10.07;43.17
65832;BME280;52593;42.648;23.332;2023-04-27T09:53:32;94373.25;;;9.70;42.81
65832;BME280;52593;42.648;23.332;2023-04-27T10:04:15;94360.06;;;11.94;40.10
65832;BME280;52593;42.648;23.332;2023-04-27T10:07:06;94368.03;;;12.16;38.17
65832;BME280;52593;42.648;23.332;2023-04-27T10:12:25;94354.41;;;11.11;39.13
65832;BME280;52593;42.648;23.332;2023-04-27T10:14:52;94368.78;;;10.67;39.12
65832;BME280;52593;42.648;23.332;2023-04-27T10:17:18;94368.78;;;10.67;40.03
65832;BME280;52593;42.648;23.332;2023-04-27T10:19:59;94362.75;;;10.58;39.91
65832;BME280;52593;42.648;23.332;2023-04-27T10:22:45;94367.47;;;10.99;40.57
65832;BME280;52593;42.648;23.332;2023-04-27T10:27:39;94351.72;;;10.68;39.20
65832;BME280;52593;42.648;23.332;2023-04-27T10:30:12;94368.88;;;10.74;39.97
65832;BME280;52593;42.648;23.332;2023-04-27T10:32:55;94372.69;;;10.64;39.95
65832;BME280;52593;42.648;23.332;2023-04-27T10:35:22;94362.94;;;10.57;39.21
65832;BME280;52593;42.648;23.332;2023-04-27T10:38:07;94353.25;;;10.77;39.26
65832;BME280;52593;42.648;23.332;2023-04-27T10:40:34;94343.75;;;11.18;38.46
65832;BME280;52593;42.648;23.332;2023-04-27T10:43:16;94344.28;;;11.06;38.28
65832;BME280;52593;42.648;23.332;2023-04-27T10:45:43;94347.88;;;11.14;38.55
65832;BME280;52593;42.648;23.332;2023-04-27T10:48:11;94345.31;;;11.27;38.71
65832;BME280;52593;42.648;23.332;2023-04-27T10:50:37;94353.94;;;11.22;38.02
65832;BME280;52593;42.648;23.332;2023-04-27T10:53:04;94353.97;;;11.07;38.36
65832;BME280;52593;42.648;23.332;2023-04-27T10:55:31;94360.50;;;10.98;38.68
65832;BME280;52593;42.648;23.332;2023-04-27T10:57:56;94349.97;;;10.97;39.18
65832;BME280;52593;42.648;23.332;2023-04-27T11:00:26;94359.06;;;10.81;38.95
65832;BME280;52593;42.648;23.332;2023-04-27T11:02:53;94337.63;;;11.74;37.84
65832;BME280;52593;42.648;23.332;2023-04-27T11:05:21;94328.19;;;11.85;36.92
65832;BME280;52593;42.648;23.332;2023-04-27T11:07:50;94332.34;;;11.87;36.49
65832;BME280;52593;42.648;23.332;2023-04-27T11:10:17;94352.38;;;11.91;36.49
65832;BME280;52593;42.648;23.332;2023-04-27T11:12:44;94351.41;;;11.42;37.08
65832;BME280;52593;42.648;23.332;2023-04-27T11:15:10;94357.81;;;11.20;37.08
65832;BME280;52593;42.648;23.332;2023-04-27T11:17:36;94356.91;;;10.91;38.04
65832;BME280;52593;42.648;23.332;2023-04-27T11:20:02;94344.97;;;11.37;38.04
65832;BME280;52593;42.648;23.332;2023-04-27T11:22:29;94347.31;;;11.47;37.67
65832;BME280;52593;42.648;23.332;2023-04-27T11:24:55;94343.81;;;12.03;37.00
65832;BME280;52593;42.648;23.332;2023-04-27T11:27:20;94363.72;;;12.22;36.79
65832;BME280;52593;42.648;23.332;2023-04-27T11:29:48;94362.78;;;12.43;36.48
65832;BME280;52593;42.648;23.332;2023-04-27T11:32:21;94360.38;;;11.85;37.27
65832;BME280;52593;42.648;23.332;2023-04-27T11:34:51;94354.47;;;11.68;37.24
65832;BME280;52593;42.648;23.332;2023-04-27T11:37:24;94345.03;;;11.72;37.62
65832;BME280;52593;42.648;23.332;2023-04-27T11:39:50;94366.72;;;11.49;38.26
65832;BME280;52593;42.648;23.332;2023-04-27T11:42:26;94365.84;;;11.20;38.30
65832;BME280;52593;42.648;23.332;2023-04-27T11:45:00;94367.22;;;11.37;38.06
65832;BME280;52593;42.648;23.332;2023-04-27T11:47:29;94358.66;;;11.77;38.10
65832;BME280;52593;42.648;23.332;2023-04-27T11:49:58;94349.84;;;11.55;38.00
65832;BME280;52593;42.648;23.332;2023-04-27T11:52:30;94354.88;;;11.65;37.97
65832;BME280;52593;42.648;23.332;2023-04-27T11:54:58;94359.31;;;12.07;37.04
65832;BME280;52593;42.648;23.332;2023-04-27T11:57:28;94360.13;;;11.80;37.10
65832;BME280;52593;42.648;23.332;2023-04-27T11:59:55;94352.88;;;11.73;37.65
65832;BME280;52593;42.648;23.332;2023-04-27T12:02:21;94371.13;;;11.35;37.52
65832;BME280;52593;42.648;23.332;2023-04-27T12:04:48;94379.47;;;11.47;37.81
65832;BME280;52593;42.648;23.332;2023-04-27T12:07:13;94368.25;;;11.36;37.75
65832;BME280;52593;42.648;23.332;2023-04-27T12:09:39;94372.59;;;11.16;36.63
65832;BME280;52593;42.648;23.332;2023-04-27T12:12:05;94371.97;;;10.92;37.99
65832;BME280;52593;42.648;23.332;2023-04-27T12:14:31;94377.78;;;10.81;38.86
65832;BME280;52593;42.648;23.332;2023-04-27T12:16:56;94375.25;;;10.94;39.51
65832;BME280;52593;42.648;23.332;2023-04-27T12:19:21;94387.00;;;11.15;38.49
65832;BME280;52593;42.648;23.332;2023-04-27T12:21:49;94384.84;;;10.67;38.23
65832;BME280;52593;42.648;23.332;2023-04-27T12:24:15;94373.06;;;10.61;37.93
65832;BME280;52593;42.648;23.332;2023-04-27T12:26:40;94376.16;;;10.80;38.52
65832;BME280;52593;42.648;23.332;2023-04-27T12:29:06;94369.78;;;11.02;37.85
65832;BME280;52593;42.648;23.332;2023-04-27T12:31:31;94381.81;;;11.13;38.27
65832;BME280;52593;42.648;23.332;2023-04-27T12:33:57;94377.75;;;11.17;38.89
65832;BME280;52593;42.648;23.332;2023-04-27T12:36:23;94372.50;;;11.52;38.32
65832;BME280;52593;42.648;23.332;2023-04-27T12:38:48;94376.63;;;11.76;38.22
65832;BME280;52593;42.648;23.332;2023-04-27T12:41:14;94375.84;;;11.83;37.84
65832;BME280;52593;42.648;23.332;2023-04-27T12:43:40;94369.88;;;11.59;37.66
65832;BME280;52593;42.648;23.332;2023-04-27T12:46:06;94372.00;;;11.42;38.06
65832;BME280;52593;42.648;23.332;2023-04-27T12:48:32;94381.91;;;10.98;39.32
65832;BME280;52593;42.648;23.332;2023-04-27T12:50:58;94390.84;;;10.69;39.73
65832;BME280;52593;42.648;23.332;2023-04-27T12:53:23;94397.09;;;10.76;39.78
65832;BME280;52593;42.648;23.332;2023-04-27T12:55:49;94395.44;;;10.75;39.11
65832;BME280;52593;42.648;23.332;2023-04-27T12:58:15;94387.81;;;10.94;39.76
65832;BME280;52593;42.648;23.332;2023-04-27T13:00:40;94391.63;;;10.84;39.10
65832;BME280;52593;42.648;23.332;2023-04-27T13:03:06;94402.22;;;10.93;38.88
65832;BME280;52593;42.648;23.332;2023-04-27T13:05:31;94380.75;;;11.07;38.32
65832;BME280;52593;42.648;23.332;2023-04-27T13:07:57;94385.88;;;11.24;38.39